Time;durP1;ratioP1;P1;durP2;ratioP2;P2;SDS_P1;SDS_P2;PMS_P1;PMS_P2;Temp;Humidity;BMP_temperature;BMP_pressure;BME280_temperature;BME280_humidity;BME280_pressure;Samples;Min_cycle;Max_cycle;Signal;HPM_P1;HPM_P2
2022/03/26 00:01:17;;;;;;;48.73;24.33;;;8.50;90.60;;;;;;5014315;28;20206;-76
2022/03/26 00:03:44;;;;;;;46.43;22.73;;;8.50;90.70;;;;;;5024804;28;20678;-75
2022/03/26 00:06:12;;;;;;;48.37;23.43;;;8.50;90.70;;;;;;5028831;28;20248;-75
2022/03/26 00:08:39;;;;;;;44.40;23.20;;;8.60;91.00;;;;;;5016261;28;20233;-75
2022/03/26 00:11:07;;;;;;;47.27;23.63;;;8.60;91.10;;;;;;5009022;28;20213;-75
2022/03/26 00:13:34;;;;;;;44.50;22.97;;;8.60;91.40;;;;;;5022566;28;20233;-75
2022/03/26 00:16:02;;;;;;;47.03;21.63;;;8.60;91.00;;;;;;5009488;28;20179;-75
2022/03/26 00:18:29;;;;;;;44.27;22.87;;;8.60;91.00;;;;;;5026556;28;20249;-75
2022/03/26 00:20:56;;;;;;;49.07;23.23;;;8.60;91.30;;;;;;5018234;28;20220;-75
2022/03/26 00:23:23;;;;;;;42.17;23.17;;;8.60;91.30;;;;;;5018176;28;20210;-74
2022/03/26 00:25:49;;;;;;;41.53;21.87;;;8.70;91.40;;;;;;5024224;28;20205;-75
2022/03/26 00:28:18;;;;;;;53.70;23.73;;;8.70;91.40;;;;;;5028490;28;20234;-74
2022/03/26 00:30:45;;;;;;;45.47;22.57;;;8.70;91.60;;;;;;5024590;28;20206;-74
2022/03/26 00:33:12;;;;;;;47.63;23.40;;;8.70;91.50;;;;;;5021096;28;20667;-74
2022/03/26 00:35:39;;;;;;;46.87;22.47;;;8.80;91.70;;;;;;5028553;28;20209;-74
2022/03/26 00:38:06;;;;;;;47.37;22.43;;;8.70;91.50;;;;;;5020961;28;20244;-75
2022/03/26 00:40:33;;;;;;;46.97;23.27;;;8.70;91.50;;;;;;5022832;28;20210;-74
2022/03/26 00:43:00;;;;;;;49.03;24.00;;;8.70;91.60;;;;;;5036810;28;20241;-74
2022/03/26 00:45:29;;;;;;;44.77;22.47;;;8.60;91.60;;;;;;5013230;28;20746;-73
2022/03/26 00:47:56;;;;;;;48.83;23.60;;;8.60;91.70;;;;;;5012893;28;20304;-76
2022/03/26 00:50:23;;;;;;;44.47;23.70;;;8.60;91.80;;;;;;5027674;28;20255;-73
2022/03/26 00:52:50;;;;;;;49.30;25.10;;;8.50;91.80;;;;;;5022069;28;20565;-74
2022/03/26 00:55:18;;;;;;;42.80;22.97;;;9.30;92.10;;;;;;5018147;28;20205;-74
2022/03/26 01:00:28;;;;;;;51.17;25.10;;;8.20;91.30;;;;;;5280339;23;20229;-73
2022/03/26 01:02:54;;;;;;;40.20;23.17;;;8.10;91.70;;;;;;5010707;28;20597;-76
2022/03/26 01:05:21;;;;;;;49.67;24.77;;;8.10;91.80;;;;;;5007119;28;20218;-74
2022/03/26 01:07:48;;;;;;;49.83;24.13;;;7.90;91.80;;;;;;5018043;28;20234;-74
2022/03/26 01:10:15;;;;;;;45.97;24.50;;;7.90;91.80;;;;;;4995376;28;20313;-75
2022/03/26 01:12:44;;;;;;;51.17;24.03;;;7.80;91.40;;;;;;5044753;22;20276;-86
2022/03/26 01:15:11;;;;;;;48.10;25.23;;;7.80;91.90;;;;;;5036205;28;20181;-85
2022/03/26 01:17:40;;;;;;;50.30;25.03;;;7.70;91.90;;;;;;5028396;28;20328;-86
2022/03/26 01:20:09;;;;;;;45.80;24.57;;;7.60;91.70;;;;;;5049456;28;20223;-87
2022/03/26 01:22:36;;;;;;;53.47;25.33;;;7.50;92.10;;;;;;5025790;28;20226;-86
2022/03/26 01:25:03;;;;;;;50.80;26.30;;;7.50;92.20;;;;;;5019732;28;20213;-86
2022/03/26 01:27:30;;;;;;;48.80;24.90;;;7.50;92.20;;;;;;5016772;28;20230;-86
2022/03/26 01:29:57;;;;;;;47.17;25.53;;;7.40;92.20;;;;;;5033714;28;20839;-86
2022/03/26 01:32:25;;;;;;;47.33;23.83;;;7.40;92.30;;;;;;5016235;28;20278;-86
2022/03/26 01:34:54;;;;;;;44.17;22.73;;;7.30;92.50;;;;;;5016368;28;20210;-86
2022/03/26 01:37:20;;;;;;;49.53;25.83;;;7.40;92.30;;;;;;5011871;28;20562;-84
2022/03/26 01:39:47;;;;;;;44.97;24.07;;;7.20;92.50;;;;;;5006671;28;20577;-84
2022/03/26 01:42:14;;;;;;;57.57;26.20;;;7.20;92.60;;;;;;5026211;28;20217;-86
2022/03/26 01:44:41;;;;;;;49.20;22.77;;;7.10;92.70;;;;;;5026027;28;20292;-85
2022/03/26 01:47:09;;;;;;;48.37;24.60;;;7.10;92.80;;;;;;5025724;28;20264;-86
2022/03/26 01:49:37;;;;;;;46.30;22.43;;;7.10;92.90;;;;;;5044508;28;20197;-88
2022/03/26 01:52:12;;;;;;;51.83;26.77;;;7.10;93.00;;;;;;5039811;28;20211;-86
2022/03/26 01:54:41;;;;;;;48.93;24.97;;;7.50;93.30;;;;;;5022964;28;20554;-85
2022/03/26 01:57:10;;;;;;;54.50;24.90;;;7.10;93.20;;;;;;5024419;28;20365;-84
2022/03/26 01:59:38;;;;;;;46.90;24.67;;;7.10;93.20;;;;;;5022192;28;20225;-85
2022/03/26 02:02:06;;;;;;;42.50;25.07;;;7.10;93.30;;;;;;5037929;28;20221;-87
2022/03/26 02:04:34;;;;;;;47.90;25.27;;;7.10;93.40;;;;;;5032333;28;20237;-85
2022/03/26 02:07:03;;;;;;;51.53;25.30;;;7.00;93.40;;;;;;5018652;28;20233;-85
2022/03/26 02:09:35;;;;;;;49.30;25.50;;;7.00;93.60;;;;;;5029177;28;20210;-86
2022/03/26 02:12:03;;;;;;;48.70;24.67;;;7.00;93.90;;;;;;5020696;28;20542;-86
2022/03/26 02:14:30;;;;;;;48.50;24.47;;;7.00;93.80;;;;;;5009690;28;20301;-85
2022/03/26 02:16:57;;;;;;;44.43;23.93;;;7.10;93.90;;;;;;5017461;28;20222;-85
2022/03/26 02:19:24;;;;;;;47.23;24.93;;;7.70;94.30;;;;;;5041538;28;20209;-85
2022/03/26 02:21:53;;;;;;;50.03;24.10;;;7.10;94.10;;;;;;5031349;28;20670;-85
2022/03/26 02:24:20;;;;;;;45.13;24.23;;;7.10;93.90;;;;;;5021941;28;20205;-85
2022/03/26 02:26:47;;;;;;;42.33;24.17;;;;;;;;;;5019742;28;20238;-85
2022/03/26 02:29:15;;;;;;;50.17;24.80;;;;;;;;;;5013023;28;20242;-85
2022/03/26 02:31:42;;;;;;;58.47;26.10;;;7.20;94.20;;;;;;5011850;28;20218;-86
2022/03/26 02:34:10;;;;;;;48.00;25.07;;;7.20;94.30;;;;;;5026680;28;20309;-86
2022/03/26 02:36:38;;;;;;;46.10;24.77;;;7.20;94.60;;;;;;5020286;28;20227;-84
2022/03/26 02:39:07;;;;;;;51.13;25.40;;;7.50;94.80;;;;;;5040586;28;20190;-85
2022/03/26 02:41:34;;;;;;;45.97;25.90;;;7.20;94.60;;;;;;5012637;28;20207;-85
2022/03/26 02:44:01;;;;;;;49.07;25.20;;;7.10;94.60;;;;;;5027653;28;20221;-85
2022/03/26 02:46:28;;;;;;;54.03;25.50;;;7.00;94.40;;;;;;5013657;28;20249;-86
2022/03/26 02:48:55;;;;;;;48.13;25.80;;;7.10;94.70;;;;;;5016882;28;20216;-86
2022/03/26 02:51:22;;;;;;;56.17;25.03;;;;;;;;;;5021244;28;20223;-86
2022/03/26 02:53:49;;;;;;;47.53;26.20;;;7.00;94.60;;;;;;5010021;28;20228;-86
2022/03/26 02:56:19;;;;;;;50.50;25.60;;;7.00;94.50;;;;;;5015384;28;20221;-86
2022/03/26 02:58:46;;;;;;;58.07;26.40;;;7.00;95.00;;;;;;5028263;28;20241;-86
2022/03/26 03:01:14;;;;;;;48.10;25.23;;;6.90;94.70;;;;;;5031597;28;20213;-85
2022/03/26 03:03:41;;;;;;;47.47;25.57;;;6.90;95.20;;;;;;5006418;28;20214;-86
2022/03/26 03:06:09;;;;;;;45.90;24.50;;;6.80;95.10;;;;;;5015639;28;20225;-85
2022/03/26 03:08:35;;;;;;;51.23;26.07;;;6.90;95.40;;;;;;5024019;28;20273;-86
2022/03/26 03:11:02;;;;;;;48.03;25.93;;;6.80;95.40;;;;;;5026434;28;20213;-86
2022/03/26 03:13:31;;;;;;;53.47;25.43;;;6.70;95.40;;;;;;5009696;28;21460;-86
2022/03/26 03:15:59;;;;;;;52.30;25.77;;;6.70;95.40;;;;;;5017861;28;20303;-86
2022/03/26 03:18:26;;;;;;;45.00;23.83;;;;;;;;;;5011278;28;20256;-86
2022/03/26 03:20:53;;;;;;;44.80;23.83;;;6.70;95.40;;;;;;5014779;28;20215;-86
2022/03/26 03:23:20;;;;;;;46.47;24.37;;;8.40;96.30;;;;;;5013674;28;20218;-86
2022/03/26 03:25:47;;;;;;;47.03;24.97;;;6.60;95.70;;;;;;5025287;28;20306;-84
2022/03/26 03:28:14;;;;;;;42.90;23.80;;;6.60;95.80;;;;;;5029680;28;20233;-84
2022/03/26 03:30:42;;;;;;;44.73;23.60;;;6.70;95.90;;;;;;5018432;28;20214;-85
2022/03/26 03:33:09;;;;;;;46.80;23.93;;;6.70;95.90;;;;;;5004265;28;20631;-85
2022/03/26 03:35:36;;;;;;;44.23;23.70;;;7.20;96.20;;;;;;5019759;28;20330;-85
2022/03/26 03:38:03;;;;;;;51.77;25.00;;;6.70;96.10;;;;;;5000807;28;20393;-86
2022/03/26 03:40:30;;;;;;;53.60;24.23;;;6.60;96.10;;;;;;5007161;28;20301;-85
2022/03/26 03:42:57;;;;;;;49.47;25.63;;;6.60;96.10;;;;;;5036425;28;20218;-85
2022/03/26 03:45:24;;;;;;;43.90;24.73;;;6.60;96.30;;;;;;5033153;28;20265;-85
2022/03/26 03:47:53;;;;;;;47.90;24.97;;;6.60;96.10;;;;;;5053994;28;20433;-85
2022/03/26 03:50:19;;;;;;;50.17;24.77;;;6.60;96.40;;;;;;5055124;28;20201;-85
2022/03/26 03:52:47;;;;;;;50.13;23.33;;;7.20;96.60;;;;;;5033017;28;20198;-84
2022/03/26 03:55:15;;;;;;;44.13;24.60;;;6.50;96.60;;;;;;5027956;28;20222;-85
2022/03/26 03:57:43;;;;;;;48.40;23.57;;;6.50;96.70;;;;;;5048245;28;20229;-85
2022/03/26 04:00:11;;;;;;;45.87;24.53;;;6.60;96.60;;;;;;5044721;28;20181;-85
2022/03/26 04:02:41;;;;;;;45.83;23.93;;;6.60;97.00;;;;;;5049877;28;20229;-85
2022/03/26 04:05:11;;;;;;;45.90;24.47;;;6.70;97.00;;;;;;5023862;28;20224;-85
2022/03/26 04:07:39;;;;;;;46.13;24.53;;;6.60;97.00;;;;;;5024831;28;20233;-86
2022/03/26 04:10:08;;;;;;;45.23;23.40;;;6.50;96.90;;;;;;5016555;28;20206;-85
2022/03/26 04:12:36;;;;;;;51.87;25.20;;;6.50;96.50;;;;;;5024896;28;20271;-86
2022/03/26 04:15:04;;;;;;;47.67;23.93;;;6.50;97.00;;;;;;5016623;28;20240;-86
2022/03/26 04:17:32;;;;;;;44.57;24.00;;;6.40;97.00;;;;;;5024952;28;20226;-85
2022/03/26 04:19:59;;;;;;;50.03;25.77;;;6.40;97.00;;;;;;5036807;28;20209;-85
2022/03/26 04:22:27;;;;;;;50.23;24.00;;;6.50;97.00;;;;;;5019018;28;20276;-86
2022/03/26 04:24:54;;;;;;;49.97;25.67;;;6.20;96.50;;;;;;5026503;28;20252;-85
2022/03/26 04:27:21;;;;;;;49.47;24.23;;;6.30;97.10;;;;;;5026102;28;20240;-85
2022/03/26 04:29:48;;;;;;;48.33;24.07;;;6.10;97.10;;;;;;5015458;28;21097;-85
2022/03/26 04:32:15;;;;;;;50.70;25.43;;;6.10;96.80;;;;;;5017746;28;20210;-85
2022/03/26 04:34:42;;;;;;;46.27;24.80;;;6.10;97.40;;;;;;5011438;28;20217;-85
2022/03/26 04:37:10;;;;;;;49.80;25.43;;;6.00;97.30;;;;;;5011282;28;20716;-86
2022/03/26 04:39:38;;;;;;;50.03;26.70;;;6.20;97.50;;;;;;5037256;28;20217;-85
2022/03/26 04:42:06;;;;;;;48.40;25.30;;;6.80;97.80;;;;;;5016144;28;20206;-85
2022/03/26 04:44:33;;;;;;;53.67;26.13;;;5.90;97.50;;;;;;5023665;28;20305;-86
2022/03/26 04:47:00;;;;;;;50.87;26.53;;;5.80;97.60;;;;;;5031590;28;20229;-85
2022/03/26 04:49:26;;;;;;;52.23;27.10;;;5.80;97.70;;;;;;5033828;28;20205;-85
2022/03/26 04:51:53;;;;;;;53.10;26.53;;;5.80;97.80;;;;;;5019345;28;20224;-85
2022/03/26 04:54:20;;;;;;;49.87;25.43;;;5.80;97.90;;;;;;5023839;28;20206;-85
2022/03/26 04:56:49;;;;;;;52.07;25.17;;;5.80;98.30;;;;;;5025047;28;20316;-85
2022/03/26 04:59:16;;;;;;;51.50;25.23;;;6.40;98.20;;;;;;5019141;28;20281;-85
2022/03/26 05:01:44;;;;;;;51.77;26.03;;;6.70;98.50;;;;;;5016087;28;20286;-85
2022/03/26 05:04:11;;;;;;;54.33;25.77;;;5.70;97.50;;;;;;5007564;28;20302;-85
2022/03/26 05:06:38;;;;;;;51.77;25.93;;;5.70;98.20;;;;;;5030077;28;20237;-85
2022/03/26 05:09:05;;;;;;;51.47;26.17;;;5.60;98.00;;;;;;5016692;28;20214;-85
2022/03/26 05:11:32;;;;;;;49.03;25.80;;;5.60;98.30;;;;;;5033673;28;20221;-85
2022/03/26 05:14:01;;;;;;;54.07;25.80;;;5.90;98.40;;;;;;5026333;28;20219;-86
2022/03/26 05:16:28;;;;;;;51.63;26.43;;;5.50;97.80;;;;;;5028252;28;20289;-85
2022/03/26 05:18:55;;;;;;;50.23;26.87;;;5.10;98.30;;;;;;5012388;28;20323;-86
2022/03/26 05:21:22;;;;;;;55.77;25.17;;;5.60;98.60;;;;;;5026472;28;20210;-86
2022/03/26 05:23:48;;;;;;;57.57;26.70;;;5.50;98.40;;;;;;5019119;28;20220;-85
2022/03/26 05:26:15;;;;;;;63.20;27.97;;;5.50;98.50;;;;;;5006633;28;20210;-87
2022/03/26 05:28:45;;;;;;;48.77;25.03;;;5.50;98.90;;;;;;5009504;28;20284;-87
2022/03/26 05:31:13;;;;;;;51.73;27.47;;;5.50;99.00;;;;;;5006341;28;20211;-86
2022/03/26 05:33:41;;;;;;;53.93;27.13;;;6.40;99.40;;;;;;5025701;28;20217;-87
2022/03/26 05:36:08;;;;;;;55.93;27.23;;;5.60;99.30;;;;;;5013308;28;20235;-87
2022/03/26 05:38:36;;;;;;;50.43;24.93;;;5.70;99.50;;;;;;5023138;28;20232;-86
2022/03/26 05:41:04;;;;;;;52.47;26.30;;;5.80;99.60;;;;;;5026136;28;20583;-86
2022/03/26 05:43:31;;;;;;;64.63;26.97;;;5.80;99.70;;;;;;5026159;28;20238;-86
2022/03/26 05:45:58;;;;;;;57.43;26.23;;;5.90;99.90;;;;;;5014717;28;20206;-86
2022/03/26 05:48:26;;;;;;;51.73;24.97;;;6.00;99.90;;;;;;5030588;28;20237;-87
2022/03/26 05:50:53;;;;;;;53.67;27.40;;;6.10;99.90;;;;;;5041314;28;20212;-86
2022/03/26 05:53:20;;;;;;;51.20;26.47;;;6.20;99.90;;;;;;5018067;28;20624;-85
2022/03/26 05:55:47;;;;;;;51.63;25.70;;;6.30;99.90;;;;;;5031194;28;20221;-85
2022/03/26 05:58:15;;;;;;;51.50;25.00;;;6.40;99.90;;;;;;5015758;28;20234;-85
2022/03/26 06:00:42;;;;;;;47.37;24.00;;;6.50;99.90;;;;;;5031711;28;20287;-85
2022/03/26 06:03:09;;;;;;;50.53;25.57;;;6.70;99.90;;;;;;5016138;28;20229;-86
2022/03/26 06:05:38;;;;;;;49.00;25.97;;;6.90;99.90;;;;;;5012891;28;20774;-85
2022/03/26 06:08:05;;;;;;;45.13;25.03;;;7.20;99.90;;;;;;5037320;28;20216;-86
2022/03/26 06:10:35;;;;;;;50.33;24.83;;;7.60;99.90;;;;;;5019097;28;20210;-87
2022/03/26 06:13:01;;;;;;;44.25;23.95;;;7.90;99.90;;;;;;5028971;28;20534;-85
2022/03/26 06:15:28;;;;;;;42.90;23.83;;;8.30;99.90;;;;;;5026434;28;20203;-86
2022/03/26 06:17:55;;;;;;;41.33;22.73;;;9.20;99.90;;;;;;5024977;28;20217;-85
2022/03/26 06:20:23;;;;;;;40.63;23.67;;;9.20;99.90;;;;;;5008458;28;20206;-87
2022/03/26 06:22:51;;;;;;;51.00;24.00;;;9.80;99.90;;;;;;5026667;28;20380;-86
2022/03/26 06:25:18;;;;;;;45.17;23.83;;;10.40;99.90;;;;;;5022641;28;20198;-86
2022/03/26 06:27:47;;;;;;;;;;;10.90;99.90;;;;;;5023546;28;20505;-86
2022/03/26 06:30:15;;;;;;;;;;;11.50;99.90;;;;;;5024224;28;20584;-85
2022/03/26 06:32:45;;;;;;;;;;;12.10;99.90;;;;;;5025123;28;20423;-86
2022/03/26 06:35:11;;;;;;;40.13;23.03;;;12.70;99.90;;;;;;5008015;28;20216;-86
2022/03/26 06:37:38;;;;;;;40.03;22.53;;;13.20;99.80;;;;;;5009164;28;20267;-86
2022/03/26 06:40:08;;;;;;;42.83;22.83;;;13.70;99.40;;;;;;5024609;28;20167;-86
2022/03/26 06:42:37;;;;;;;36.57;23.70;;;14.10;99.10;;;;;;5008364;28;20225;-86
2022/03/26 06:45:05;;;;;;;43.87;23.97;;;14.60;98.70;;;;;;5024721;28;20206;-85
2022/03/26 06:47:32;;;;;;;39.03;23.37;;;15.10;98.20;;;;;;5019513;28;20260;-85
2022/03/26 06:50:01;;;;;;;43.50;24.43;;;15.50;97.90;;;;;;5027539;28;20676;-86
2022/03/26 06:52:28;;;;;;;47.13;25.50;;;16.00;97.40;;;;;;5011240;28;20235;-86
2022/03/26 06:54:56;;;;;;;40.00;23.57;;;16.30;96.30;;;;;;5011129;28;20665;-86
2022/03/26 06:57:24;;;;;;;45.00;24.57;;;16.60;96.60;;;;;;5005841;28;20240;-85
2022/03/26 06:59:55;;;;;;;42.17;23.57;;;17.20;96.00;;;;;;5031904;28;20962;-85
2022/03/26 07:02:24;;;;;;;35.57;22.00;;;17.60;95.10;;;;;;5030237;28;20190;-87
2022/03/26 07:04:58;;;;;;;35.27;22.87;;;17.70;94.00;;;;;;5040465;28;20207;-85
2022/03/26 07:07:27;;;;;;;41.07;24.00;;;17.90;93.70;;;;;;5023282;28;20245;-86
2022/03/26 07:10:07;;;;;;;34.45;22.65;;;18.00;93.10;;;;;;5040538;28;20276;-86
2022/03/26 07:12:39;;;;;;;43.63;24.10;;;18.40;93.10;;;;;;5045219;28;20254;-85
2022/03/26 07:15:09;;;;;;;38.20;24.20;;;18.60;92.40;;;;;;5018589;28;20292;-86
2022/03/26 07:17:39;;;;;;;39.40;25.20;;;18.90;92.20;;;;;;5027028;28;20656;-87
2022/03/26 07:20:07;;;;;;;39.40;22.03;;;19.00;91.70;;;;;;5010520;28;20329;-87
2022/03/26 07:22:35;;;;;;;36.10;21.90;;;19.20;90.80;;;;;;5023126;28;20243;-87
2022/03/26 07:25:03;;;;;;;37.80;24.33;;;19.10;88.50;;;;;;5017402;28;20318;-87
2022/03/26 07:35:30;;;;;;;42.77;25.27;;;19.20;89.00;;;;;;4957935;28;20246;-88
2022/03/26 07:37:57;;;;;;;37.53;23.20;;;20.40;89.30;;;;;;4975421;28;20237;-88
2022/03/26 07:40:25;;;;;;;36.33;24.87;;;19.70;86.70;;;;;;5036500;28;20210;-86
2022/03/26 07:42:52;;;;;;;39.53;24.07;;;;;;;;;;5015138;28;20233;-87
2022/03/26 07:45:21;;;;;;;41.70;25.33;;;20.50;87.80;;;;;;5021235;28;20277;-87
2022/03/26 07:47:48;;;;;;;42.60;26.07;;;20.60;86.50;;;;;;5017061;28;20278;-87
2022/03/26 07:50:15;;;;;;;43.13;24.57;;;21.00;87.60;;;;;;5014362;28;20233;-86
2022/03/26 07:52:43;;;;;;;41.60;24.97;;;21.40;85.30;;;;;;5016471;28;20219;-87
2022/03/26 07:55:11;;;;;;;42.63;25.20;;;21.70;85.40;;;;;;5017701;28;20192;-87
2022/03/26 07:57:38;;;;;;;38.47;25.13;;;21.80;83.00;;;;;;5023281;28;20221;-86
2022/03/26 08:00:07;;;;;;;41.57;26.53;;;21.60;82.30;;;;;;5024481;28;20854;-84
2022/03/26 08:02:40;;;;;;;37.63;24.57;;;21.70;82.90;;;;;;5029810;28;20210;-86
2022/03/26 08:05:10;;;;;;;41.10;25.37;;;21.80;80.10;;;;;;5007158;28;20201;-84
2022/03/26 08:07:37;;;;;;;48.97;25.43;;;21.50;79.70;;;;;;5021010;28;20227;-85
2022/03/26 08:10:06;;;;;;;36.07;24.70;;;21.30;80.20;;;;;;5027300;28;20305;-85
2022/03/26 08:12:33;;;;;;;40.33;24.33;;;21.30;80.80;;;;;;5023158;28;20224;-84
2022/03/26 08:15:00;;;;;;;39.07;24.97;;;21.40;81.60;;;;;;5029661;28;20523;-88
2022/03/26 08:17:29;;;;;;;37.40;23.43;;;21.70;81.90;;;;;;5024524;28;20236;-86
2022/03/26 08:19:57;;;;;;;33.33;23.90;;;21.90;80.60;;;;;;5020655;28;20208;-87
2022/03/26 08:22:24;;;;;;;42.60;23.53;;;21.90;80.50;;;;;;5022060;28;20703;-87
2022/03/26 08:24:52;;;;;;;37.60;24.47;;;21.80;79.70;;;;;;5011486;28;20290;-88
2022/03/26 08:27:20;;;;;;;35.60;25.07;;;21.70;78.60;;;;;;5016736;28;20232;-87
2022/03/26 08:29:48;;;;;;;38.47;24.47;;;21.70;79.30;;;;;;5025758;28;20219;-87
2022/03/26 08:32:16;;;;;;;41.80;23.67;;;21.70;80.70;;;;;;5025961;28;20205;-87
2022/03/26 08:34:44;;;;;;;34.43;23.57;;;22.20;82.10;;;;;;5024021;28;20240;-87
2022/03/26 08:37:11;;;;;;;36.10;23.60;;;22.30;79.10;;;;;;5034545;28;20233;-87
2022/03/26 08:39:38;;;;;;;35.13;23.40;;;22.20;78.90;;;;;;5028067;28;20211;-87
2022/03/26 08:42:06;;;;;;;38.60;23.53;;;22.10;79.40;;;;;;5028980;28;20283;-88
2022/03/26 08:44:34;;;;;;;38.33;24.33;;;22.20;79.50;;;;;;5026746;28;20219;-87
2022/03/26 08:47:04;;;;;;;36.20;23.60;;;22.40;79.80;;;;;;5027858;28;20251;-87
2022/03/26 08:49:32;;;;;;;33.93;22.83;;;22.70;80.70;;;;;;5028210;28;20244;-87
2022/03/26 08:51:59;;;;;;;31.70;22.63;;;22.60;79.20;;;;;;5025232;28;20205;-88
2022/03/26 08:54:26;;;;;;;33.57;22.50;;;22.60;80.00;;;;;;5009468;28;20208;-88
2022/03/26 08:56:53;;;;;;;36.30;22.80;;;22.90;80.80;;;;;;5023765;28;20686;-87
2022/03/26 08:59:22;;;;;;;33.93;23.03;;;23.20;79.70;;;;;;5015034;28;20201;-87
2022/03/26 09:01:51;;;;;;;34.63;23.27;;;23.20;78.20;;;;;;5014347;28;20229;-87
2022/03/26 09:04:18;;;;;;;36.90;24.20;;;23.10;79.10;;;;;;5019438;28;20217;-87
2022/03/26 09:06:45;;;;;;;38.88;23.25;;;23.30;79.60;;;;;;5019477;28;20237;-87
2022/03/26 09:09:14;;;;;;;33.78;21.38;;;23.50;79.50;;;;;;5026347;28;20213;-87
2022/03/26 09:11:43;;;;;;;35.97;23.23;;;23.30;77.00;;;;;;5033738;28;20201;-87
2022/03/26 09:14:11;;;;;;;33.07;23.13;;;23.20;75.90;;;;;;5036530;28;20262;-88
2022/03/26 09:16:39;;;;;;;30.77;22.23;;;22.90;76.50;;;;;;5021097;28;21214;-86
2022/03/26 09:19:08;;;;;;;37.50;22.50;;;22.50;76.10;;;;;;5008989;28;20205;-86
2022/03/26 09:21:35;;;;;;;34.60;21.50;;;22.40;76.90;;;;;;5029327;28;20206;-88
2022/03/26 09:24:02;;;;;;;35.20;22.17;;;22.30;77.30;;;;;;5022113;28;20265;-86
2022/03/26 09:26:29;;;;;;;35.27;22.50;;;22.60;78.70;;;;;;5009606;28;20257;-87
2022/03/26 09:29:01;;;;;;;29.77;19.77;;;22.70;78.40;;;;;;5024534;28;20229;-86
2022/03/26 09:31:29;;;;;;;37.13;21.57;;;22.60;75.70;;;;;;5029019;28;20209;-87
2022/03/26 09:33:56;;;;;;;32.67;19.73;;;22.20;75.50;;;;;;5015485;28;20214;-86
2022/03/26 09:36:25;;;;;;;35.17;20.53;;;21.60;75.60;;;;;;5023690;28;20193;-86
2022/03/26 09:38:53;;;;;;;32.50;22.20;;;21.10;75.60;;;;;;5027279;28;20228;-86
2022/03/26 09:41:22;;;;;;;30.50;17.40;;;20.40;75.60;;;;;;5012036;28;20219;-86
2022/03/26 09:43:49;;;;;;;30.90;16.63;;;20.20;76.10;;;;;;5028370;28;20301;-86
2022/03/26 09:46:19;;;;;;;25.93;15.60;;;19.40;76.80;;;;;;5037437;28;20217;-87
2022/03/26 09:48:46;;;;;;;39.23;19.93;;;19.10;77.40;;;;;;5037046;28;20491;-87
2022/03/26 09:51:15;;;;;;;33.87;18.60;;;18.80;77.90;;;;;;5038896;28;20240;-86
2022/03/26 09:53:47;;;;;;;33.37;18.10;;;18.60;78.10;;;;;;5020902;28;20213;-86
2022/03/26 09:56:20;;;;;;;34.23;19.33;;;18.30;77.60;;;;;;5041109;28;20205;-87
2022/03/26 09:58:51;;;;;;;35.57;21.30;;;16.70;77.10;;;;;;5010117;28;20216;-86
2022/03/26 10:01:29;;;;;;;45.37;21.77;;;17.70;79.30;;;;;;5021877;28;20228;-86
2022/03/26 10:04:11;;;;;;;30.87;18.97;;;17.70;79.40;;;;;;5023764;28;20269;-85
2022/03/26 10:06:46;;;;;;;42.10;20.63;;;17.70;80.00;;;;;;5024477;28;20234;-83
2022/03/26 10:09:25;;;;;;;35.80;21.27;;;17.70;80.30;;;;;;5028231;28;20229;-84
2022/03/26 10:11:59;;;;;;;39.87;22.60;;;17.80;80.00;;;;;;5012115;28;20232;-83
2022/03/26 10:14:36;;;;;;;36.40;20.20;;;17.80;80.20;;;;;;5028814;28;20261;-84
2022/03/26 10:17:10;;;;;;;38.27;18.57;;;17.90;80.20;;;;;;5028368;28;20233;-84
2022/03/26 10:19:41;;;;;;;39.53;20.33;;;17.90;79.80;;;;;;5027908;28;20197;-84
2022/03/26 10:22:13;;;;;;;31.37;18.20;;;17.90;79.10;;;;;;5013944;28;20224;-83
2022/03/26 10:24:44;;;;;;;32.53;17.27;;;17.90;79.60;;;;;;5029221;28;20217;-84
2022/03/26 10:27:12;;;;;;;30.03;17.30;;;18.10;80.30;;;;;;5026946;28;20225;-84
2022/03/26 10:29:49;;;;;;;27.43;16.73;;;18.00;81.40;;;;;;5019691;28;21842;-84
2022/03/26 10:35:10;;;;;;;29.83;13.90;;;18.20;81.10;;;;;;5020277;28;20320;-84
2022/03/26 10:37:58;;;;;;;31.93;16.57;;;18.30;79.60;;;;;;5015221;28;20395;-84
2022/03/26 10:40:30;;;;;;;25.57;14.90;;;18.20;80.20;;;;;;5007335;28;20213;-84
2022/03/26 10:43:06;;;;;;;22.93;12.53;;;18.10;80.10;;;;;;5026881;28;20210;-84
2022/03/26 10:45:36;;;;;;;27.10;12.47;;;18.10;79.00;;;;;;5029830;28;20203;-84
2022/03/26 10:48:08;;;;;;;25.77;13.60;;;18.00;78.00;;;;;;5029541;28;20763;-84
2022/03/26 10:50:36;;;;;;;23.13;12.00;;;18.00;78.40;;;;;;5019191;28;20266;-84
2022/03/26 10:53:08;;;;;;;19.83;12.07;;;18.10;79.00;;;;;;5006077;28;20240;-84
2022/03/26 10:55:39;;;;;;;22.77;12.90;;;18.00;78.70;;;;;;5005557;28;20217;-83
2022/03/26 10:58:18;;;;;;;20.47;12.87;;;18.10;79.00;;;;;;5025600;28;20233;-85
2022/03/26 11:00:50;;;;;;;27.40;14.00;;;18.30;79.30;;;;;;5026609;28;20559;-84
2022/03/26 11:03:17;;;;;;;24.37;12.97;;;18.40;79.80;;;;;;5017296;28;20206;-84
2022/03/26 11:05:46;;;;;;;23.67;13.27;;;18.60;79.70;;;;;;5028199;28;20887;-84
2022/03/26 11:08:14;;;;;;;23.67;13.70;;;18.60;80.00;;;;;;5020379;28;20237;-84
2022/03/26 11:10:46;;;;;;;23.97;12.70;;;18.80;80.40;;;;;;5031056;28;20221;-85
2022/03/26 11:13:17;;;;;;;27.23;14.07;;;18.90;80.00;;;;;;5013822;28;20217;-84
2022/03/26 11:15:52;;;;;;;17.23;9.37;;;19.00;80.00;;;;;;5037539;28;20280;-85
2022/03/26 11:18:51;;;;;;;19.57;11.90;;;19.10;80.20;;;;;;5038114;28;20225;-85
2022/03/26 11:22:31;;;;;;;21.70;9.87;;;19.20;79.40;;;;;;4978419;28;20306;-87
2022/03/26 11:28:50;;;;;;;20.60;10.93;;;19.40;79.30;;;;;;4957863;28;20230;-85
2022/03/26 11:31:47;;;;;;;19.87;9.57;;;19.50;78.20;;;;;;4922959;28;20758;-86
2022/03/26 11:34:23;;;;;;;15.87;8.17;;;19.60;78.40;;;;;;4950313;28;20247;-85
2022/03/26 11:36:54;;;;;;;16.30;9.93;;;19.60;78.00;;;;;;5003636;28;20233;-86
2022/03/26 11:39:25;;;;;;;14.33;8.17;;;19.60;77.90;;;;;;5005189;28;20213;-86
2022/03/26 11:42:03;;;;;;;19.73;9.50;;;19.50;77.80;;;;;;5026204;28;20209;-86
2022/03/26 11:44:45;;;;;;;19.37;9.07;;;19.70;78.20;;;;;;5020686;28;20210;-85
2022/03/26 11:53:13;;;;;;;13.57;7.60;;;20.00;79.00;;;;;;5026963;28;20217;-87
2022/03/26 11:55:47;;;;;;;15.10;7.80;;;20.30;78.80;;;;;;5004323;28;20213;-87
2022/03/26 11:58:17;;;;;;;12.53;7.00;;;20.50;78.70;;;;;;5026380;28;20255;-86
2022/03/26 12:00:56;;;;;;;13.90;7.30;;;20.60;76.80;;;;;;5023940;28;20229;-87
2022/03/26 12:03:23;;;;;;;13.20;7.10;;;20.60;76.60;;;;;;5028267;28;20567;-87
2022/03/26 12:08:52;;;;;;;13.07;6.63;;;20.90;75.80;;;;;;5025472;28;20234;-86
2022/03/26 12:11:22;;;;;;;12.23;6.30;;;20.70;76.00;;;;;;5012973;28;20716;-86
2022/03/26 12:14:01;;;;;;;12.07;7.63;;;20.90;76.80;;;;;;5033869;28;20309;-86
2022/03/26 12:16:57;;;;;;;24.33;7.70;;;21.10;75.90;;;;;;5032876;28;20303;-85
2022/03/26 12:19:39;;;;;;;13.13;7.60;;;21.20;76.50;;;;;;5019162;28;20201;-85
2022/03/26 12:22:23;;;;;;;13.37;6.97;;;21.30;76.30;;;;;;5033287;28;20786;-83
2022/03/26 12:24:51;;;;;;;14.10;7.63;;;21.30;75.80;;;;;;5029926;28;20309;-84
2022/03/26 12:27:18;;;;;;;13.00;7.20;;;21.20;74.50;;;;;;5014496;28;20347;-84
2022/03/26 12:29:45;;;;;;;15.00;7.03;;;21.10;75.00;;;;;;5054706;28;20279;-86
2022/03/26 12:32:14;;;;;;;11.53;6.57;;;21.10;74.90;;;;;;5052587;28;20215;-85
2022/03/26 12:35:02;;;;;;;13.17;6.87;;;21.30;75.50;;;;;;5044017;28;20180;-86
2022/03/26 12:37:29;;;;;;;18.40;6.53;;;21.30;74.80;;;;;;5042254;28;20312;-86
2022/03/26 12:39:57;;;;;;;14.20;7.07;;;;;;;;;;5035501;28;20227;-85
2022/03/26 12:42:25;;;;;;;12.73;6.97;;;21.40;74.20;;;;;;5014666;28;20271;-86
2022/03/26 12:44:53;;;;;;;13.70;6.53;;;21.30;73.30;;;;;;5015266;28;20258;-87
2022/03/26 12:47:23;;;;;;;10.27;5.93;;;21.30;73.80;;;;;;5050482;28;20279;-89
2022/03/26 12:49:55;;;;;;;11.43;6.77;;;21.10;73.30;;;;;;5052548;28;20240;-87
2022/03/26 12:52:24;;;;;;;12.43;6.17;;;21.50;73.70;;;;;;5020076;28;20228;-87
2022/03/26 12:54:55;;;;;;;16.53;6.83;;;21.20;74.00;;;;;;5034480;28;20206;-86
2022/03/26 12:57:22;;;;;;;9.67;6.53;;;21.30;73.80;;;;;;5032726;28;20230;-86
2022/03/26 12:59:52;;;;;;;13.03;6.67;;;21.60;73.20;;;;;;5025401;28;20236;-87
2022/03/26 13:02:20;;;;;;;9.80;6.47;;;21.40;73.70;;;;;;5008271;28;20689;-86
2022/03/26 13:04:52;;;;;;;14.03;7.20;;;21.60;74.10;;;;;;5027095;28;20209;-87
2022/03/26 13:07:21;;;;;;;10.83;6.97;;;21.60;72.30;;;;;;5031433;28;20237;-85
2022/03/26 13:09:53;;;;;;;12.63;6.80;;;21.50;72.30;;;;;;5030943;28;20223;-85
2022/03/26 13:12:27;;;;;;;19.83;7.20;;;21.40;72.50;;;;;;5031138;28;20234;-84